createdAt,value
2019-03-29T00:01:02.173Z,5.87
2019-03-29T00:02:12.926Z,5.85
2019-03-29T00:03:23.696Z,5.84
2019-03-29T00:04:34.447Z,5.83
2019-03-29T00:05:45.189Z,5.82
2019-03-29T00:06:55.940Z,5.82
2019-03-29T00:08:09.091Z,5.80
2019-03-29T00:09:18.939Z,5.79
2019-03-29T00:10:29.687Z,5.78
2019-03-29T00:11:40.435Z,5.78
2019-03-29T00:12:51.193Z,5.77
2019-03-29T00:14:01.958Z,5.76
2019-03-29T00:15:12.722Z,5.75
2019-03-29T00:16:23.952Z,5.74
2019-03-29T00:17:34.705Z,5.73
2019-03-29T00:18:45.461Z,5.70
2019-03-29T00:19:57.213Z,5.68
2019-03-29T00:21:07.954Z,5.66
2019-03-29T00:22:18.690Z,5.63
2019-03-29T00:23:29.456Z,5.63
2019-03-29T00:24:40.421Z,5.61
2019-03-29T00:25:52.426Z,5.61
2019-03-29T00:27:03.686Z,5.59
2019-03-29T00:28:14.432Z,5.59
2019-03-29T00:29:25.187Z,5.59
2019-03-29T00:30:35.927Z,5.57
2019-03-29T00:31:46.670Z,5.55
2019-03-29T00:32:57.989Z,5.54
2019-03-29T00:34:08.168Z,5.53
2019-03-29T00:35:18.907Z,5.51
2019-03-29T00:36:30.652Z,5.49
2019-03-29T00:37:52.707Z,5.48
2019-03-29T00:38:52.137Z,5.46
2019-03-29T00:40:03.374Z,5.45
2019-03-29T00:41:14.115Z,5.43
2019-03-29T00:42:24.859Z,5.41
2019-03-29T00:43:36.109Z,5.39
2019-03-29T00:44:46.847Z,5.38
2019-03-29T00:45:57.581Z,5.37
2019-03-29T00:47:08.335Z,5.36
2019-03-29T00:48:19.075Z,5.36
2019-03-29T00:49:29.834Z,5.37
2019-03-29T00:50:41.577Z,5.37
2019-03-29T00:51:52.309Z,5.38
2019-03-29T00:53:03.038Z,5.40
2019-03-29T00:54:14.281Z,5.40
2019-03-29T00:55:26.583Z,5.41
2019-03-29T00:56:37.324Z,5.42
2019-03-29T00:57:48.075Z,5.44
2019-03-29T00:58:58.814Z,5.45
2019-03-29T01:00:10.065Z,5.45
2019-03-29T01:01:20.788Z,5.46
2019-03-29T01:02:32.033Z,5.47
2019-03-29T01:03:42.765Z,5.47
2019-03-29T01:04:54.294Z,5.47
2019-03-29T01:06:04.234Z,5.49
2019-03-29T01:07:15.966Z,5.48
2019-03-29T01:08:26.701Z,5.48
2019-03-29T01:09:38.443Z,5.49
2019-03-29T01:10:49.182Z,5.47
2019-03-29T01:11:59.921Z,5.47
2019-03-29T01:13:10.658Z,5.45
2019-03-29T01:14:21.401Z,5.45
2019-03-29T01:15:32.132Z,5.44
2019-03-29T01:16:42.879Z,5.42
2019-03-29T01:17:53.612Z,5.40
2019-03-29T01:19:04.351Z,5.39
2019-03-29T01:20:15.415Z,5.39
2019-03-29T01:21:27.151Z,5.38
2019-03-29T01:22:37.895Z,5.37
2019-03-29T01:23:49.295Z,5.36
2019-03-29T01:24:59.371Z,5.36
2019-03-29T01:26:10.101Z,5.35
2019-03-29T01:27:20.849Z,5.33
2019-03-29T01:28:31.585Z,5.31
2019-03-29T01:29:42.806Z,5.30
2019-03-29T01:30:53.550Z,5.29
2019-03-29T01:32:04.292Z,5.27
2019-03-29T01:33:15.031Z,5.26
2019-03-29T01:34:26.253Z,5.25
2019-03-29T01:35:36.999Z,5.25
2019-03-29T01:36:47.731Z,5.23
2019-03-29T01:37:58.595Z,5.24
2019-03-29T01:39:09.337Z,5.23
2019-03-29T01:40:20.080Z,5.24
2019-03-29T01:41:30.823Z,5.24
2019-03-29T01:42:41.543Z,5.25
2019-03-29T01:43:52.288Z,5.26
2019-03-29T01:45:03.496Z,5.26
2019-03-29T01:46:14.229Z,5.27
2019-03-29T01:47:24.955Z,5.26
2019-03-29T01:48:35.681Z,5.26
2019-03-29T01:49:46.415Z,5.26
2019-03-29T01:50:57.156Z,5.25
2019-03-29T01:52:08.379Z,5.26
2019-03-29T01:53:19.112Z,5.27
2019-03-29T01:54:30.392Z,5.26
2019-03-29T01:55:40.575Z,5.26
2019-03-29T01:56:51.327Z,5.25
2019-03-29T01:58:02.079Z,5.24
2019-03-29T01:59:13.279Z,5.23
2019-03-29T02:00:24.005Z,5.22
2019-03-29T02:01:34.749Z,5.22
2019-03-29T02:02:46.220Z,5.22
2019-03-29T02:03:56.204Z,5.22
2019-03-29T02:05:06.937Z,5.23
2019-03-29T02:06:17.692Z,5.26
2019-03-29T02:07:28.419Z,5.30
2019-03-29T02:08:39.161Z,5.34
2019-03-29T02:09:49.885Z,5.39
2019-03-29T02:11:01.115Z,5.46
2019-03-29T02:12:12.348Z,5.53
2019-03-29T02:13:23.073Z,5.60
2019-03-29T02:14:35.293Z,5.68
2019-03-29T02:15:46.019Z,5.77
2019-03-29T02:16:56.757Z,5.84
2019-03-29T02:18:07.588Z,5.91
2019-03-29T02:19:18.322Z,5.98
2019-03-29T02:20:29.588Z,6.04
2019-03-29T02:21:40.329Z,6.11
2019-03-29T02:22:51.652Z,6.17
2019-03-29T02:24:02.333Z,6.25
2019-03-29T02:25:13.047Z,6.31
2019-03-29T02:26:23.782Z,6.38
2019-03-29T02:27:34.522Z,6.44
2019-03-29T02:28:45.753Z,6.51
2019-03-29T02:29:56.484Z,6.58
2019-03-29T02:31:07.232Z,6.63
2019-03-29T02:32:18.000Z,6.69
2019-03-29T02:33:28.716Z,6.75
2019-03-29T02:34:39.456Z,6.81
2019-03-29T02:35:50.194Z,6.86
2019-03-29T02:37:02.207Z,6.90
2019-03-29T02:38:12.659Z,6.96
2019-03-29T02:39:24.433Z,7.00
2019-03-29T02:40:35.245Z,7.06
2019-03-29T02:41:46.872Z,7.08
2019-03-29T02:42:56.613Z,7.11
2019-03-29T02:44:07.936Z,7.14
2019-03-29T02:45:18.789Z,7.17
2019-03-29T02:46:29.525Z,7.19
2019-03-29T02:47:40.777Z,7.20
2019-03-29T02:48:51.529Z,7.21
2019-03-29T02:50:02.277Z,7.23
2019-03-29T02:51:13.019Z,7.24
2019-03-29T02:52:24.260Z,7.25
2019-03-29T02:53:35.011Z,7.26
2019-03-29T02:54:45.765Z,7.28
2019-03-29T02:55:58.001Z,7.27
2019-03-29T02:57:09.750Z,7.28
2019-03-29T02:58:20.997Z,7.29
2019-03-29T02:59:31.748Z,7.28
2019-03-29T03:00:43.590Z,7.29
2019-03-29T03:01:55.351Z,7.29
2019-03-29T03:03:06.094Z,7.30
2019-03-29T03:04:16.858Z,7.30
2019-03-29T03:05:27.595Z,7.31
2019-03-29T03:06:38.350Z,7.30
2019-03-29T03:07:49.107Z,7.30
2019-03-29T03:09:13.423Z,7.31
2019-03-29T03:10:11.098Z,7.31
2019-03-29T03:11:21.843Z,7.32
2019-03-29T03:12:33.097Z,7.32
2019-03-29T03:13:44.857Z,7.33
2019-03-29T03:14:55.605Z,7.33
2019-03-29T03:16:06.366Z,7.35
2019-03-29T03:17:17.125Z,7.34
2019-03-29T03:18:28.374Z,7.36
2019-03-29T03:19:39.622Z,7.35
2019-03-29T03:20:50.372Z,7.34
2019-03-29T03:22:01.132Z,7.35
2019-03-29T03:23:12.383Z,7.34
2019-03-29T03:24:23.145Z,7.33
2019-03-29T03:25:34.387Z,7.31
2019-03-29T03:26:45.145Z,7.30
2019-03-29T03:27:55.913Z,7.29
2019-03-29T03:29:06.688Z,7.29
2019-03-29T03:30:17.456Z,7.28
2019-03-29T03:31:28.209Z,7.29
2019-03-29T03:32:40.450Z,7.28
2019-03-29T03:33:51.227Z,7.28
2019-03-29T03:35:01.997Z,7.28
2019-03-29T03:36:13.199Z,7.27
2019-03-29T03:37:23.957Z,7.26
2019-03-29T03:38:34.715Z,7.25
2019-03-29T03:39:45.968Z,7.25
2019-03-29T03:40:57.212Z,7.24
2019-03-29T03:42:08.472Z,7.24
2019-03-29T03:43:19.231Z,7.23
2019-03-29T03:44:30.000Z,7.23
2019-03-29T03:45:41.230Z,7.22
2019-03-29T03:46:51.985Z,7.22
2019-03-29T03:48:02.749Z,7.21
2019-03-29T03:49:14.162Z,7.20
2019-03-29T03:50:25.762Z,7.20
2019-03-29T03:51:36.503Z,7.20
2019-03-29T03:52:47.269Z,7.19
2019-03-29T03:53:58.032Z,7.18
2019-03-29T03:55:08.793Z,7.17
2019-03-29T03:56:19.550Z,7.17
2019-03-29T03:57:30.311Z,7.16
2019-03-29T03:58:41.074Z,7.15
2019-03-29T03:59:51.833Z,7.14
2019-03-29T04:01:03.129Z,7.13
2019-03-29T04:02:14.341Z,7.13
2019-03-29T04:03:25.591Z,7.11
2019-03-29T04:04:37.774Z,7.11
2019-03-29T04:05:47.105Z,7.10
2019-03-29T04:06:58.360Z,7.07
2019-03-29T04:08:09.633Z,7.06
2019-03-29T04:09:20.382Z,7.04
2019-03-29T04:10:31.142Z,7.02
2019-03-29T04:11:41.894Z,7.01
2019-03-29T04:12:52.644Z,6.99
2019-03-29T04:14:03.400Z,6.98
2019-03-29T04:15:14.179Z,6.97
2019-03-29T04:16:25.949Z,6.95
2019-03-29T04:17:36.700Z,6.94
2019-03-29T04:18:47.602Z,6.91
2019-03-29T04:19:58.357Z,6.89
2019-03-29T04:21:09.124Z,6.88
2019-03-29T04:22:19.884Z,6.87
2019-03-29T04:23:30.635Z,6.84
2019-03-29T04:24:41.877Z,6.82
2019-03-29T04:25:52.649Z,6.78
2019-03-29T04:27:04.882Z,6.75
2019-03-29T04:28:16.141Z,6.70
2019-03-29T04:29:26.886Z,6.67
2019-03-29T04:30:37.645Z,6.61
2019-03-29T04:31:49.887Z,6.55
2019-03-29T04:33:00.633Z,6.50
2019-03-29T04:34:11.913Z,6.42
2019-03-29T04:35:22.630Z,6.36
2019-03-29T04:36:33.381Z,6.28
2019-03-29T04:37:44.136Z,6.19
2019-03-29T04:38:54.887Z,6.13
2019-03-29T04:40:08.363Z,6.04
2019-03-29T04:41:16.889Z,5.97
2019-03-29T04:42:27.640Z,5.91
2019-03-29T04:43:38.888Z,5.84
2019-03-29T04:44:49.635Z,5.76
2019-03-29T04:46:00.385Z,5.67
2019-03-29T04:47:11.130Z,5.60
2019-03-29T04:48:21.875Z,5.52
2019-03-29T04:49:32.627Z,5.46
2019-03-29T04:50:43.385Z,5.38
2019-03-29T04:51:54.132Z,5.31
2019-03-29T04:53:05.372Z,5.25
2019-03-29T04:54:16.115Z,5.18
2019-03-29T04:55:27.857Z,5.12
2019-03-29T04:56:38.603Z,5.05
2019-03-29T04:57:49.346Z,4.98
2019-03-29T04:59:00.593Z,4.92
2019-03-29T05:00:11.326Z,4.86
2019-03-29T05:01:22.255Z,4.80
2019-03-29T05:02:32.984Z,4.74
2019-03-29T05:03:44.221Z,4.68
2019-03-29T05:04:54.957Z,4.63
2019-03-29T05:06:05.694Z,4.58
2019-03-29T05:07:16.427Z,4.53
2019-03-29T05:08:27.400Z,4.48
2019-03-29T05:09:38.635Z,4.43
2019-03-29T05:10:49.363Z,4.38
2019-03-29T05:12:00.586Z,4.33
2019-03-29T05:13:11.319Z,4.29
2019-03-29T05:14:22.051Z,4.26
2019-03-29T05:15:32.777Z,4.22
2019-03-29T05:16:43.616Z,4.18
2019-03-29T05:17:54.848Z,4.15
2019-03-29T05:19:05.576Z,4.11
2019-03-29T05:20:16.796Z,4.08
2019-03-29T05:21:27.535Z,4.05
2019-03-29T05:22:38.255Z,4.03
2019-03-29T05:23:48.983Z,3.99
2019-03-29T05:25:00.700Z,3.97
2019-03-29T05:26:11.916Z,3.97
2019-03-29T05:27:22.644Z,3.96
2019-03-29T05:28:33.869Z,3.95
2019-03-29T05:29:45.092Z,3.93
2019-03-29T05:30:55.816Z,3.93
2019-03-29T05:32:06.545Z,3.91
2019-03-29T05:33:17.270Z,3.90
2019-03-29T05:34:28.060Z,3.89
2019-03-29T05:35:39.709Z,3.88
2019-03-29T05:36:50.432Z,3.89
2019-03-29T05:38:01.154Z,3.88
2019-03-29T05:39:11.880Z,3.89
2019-03-29T05:40:34.400Z,3.89
2019-03-29T05:41:33.829Z,3.88
2019-03-29T05:42:44.547Z,3.88
2019-03-29T05:43:55.752Z,3.88
2019-03-29T05:45:06.959Z,3.88
2019-03-29T05:46:18.184Z,3.89
2019-03-29T05:47:28.913Z,3.90
2019-03-29T05:48:39.637Z,3.89
2019-03-29T05:49:50.359Z,3.90
2019-03-29T05:51:01.080Z,3.90
2019-03-29T05:52:12.810Z,3.91
2019-03-29T05:53:24.023Z,3.91
2019-03-29T05:54:34.746Z,3.91
2019-03-29T05:55:48.163Z,3.92
2019-03-29T05:56:56.354Z,3.93
2019-03-29T05:58:07.077Z,3.96
2019-03-29T05:59:18.291Z,3.98
2019-03-29T06:00:29.580Z,4.00
2019-03-29T06:01:40.798Z,4.01
2019-03-29T06:02:51.504Z,4.03
2019-03-29T06:04:02.721Z,4.06
2019-03-29T06:05:13.439Z,4.09
2019-03-29T06:06:24.168Z,4.09
2019-03-29T06:07:34.894Z,4.11
2019-03-29T06:08:45.615Z,4.15
2019-03-29T06:09:56.350Z,4.17
2019-03-29T06:11:07.580Z,4.20
2019-03-29T06:12:18.802Z,4.23
2019-03-29T06:13:29.518Z,4.26
2019-03-29T06:14:40.241Z,4.28
2019-03-29T06:15:51.265Z,4.31
2019-03-29T06:17:02.481Z,4.35
2019-03-29T06:18:13.200Z,4.39
2019-03-29T06:19:24.418Z,4.43
2019-03-29T06:20:36.140Z,4.45
2019-03-29T06:21:46.882Z,4.49
2019-03-29T06:22:57.606Z,4.52
2019-03-29T06:24:08.321Z,4.56
2019-03-29T06:25:19.586Z,4.59
2019-03-29T06:26:30.308Z,4.62
2019-03-29T06:27:41.584Z,4.66
2019-03-29T06:28:52.309Z,4.70
2019-03-29T06:30:03.038Z,4.73
2019-03-29T06:31:13.774Z,4.78
2019-03-29T06:32:24.497Z,4.82
2019-03-29T06:33:35.225Z,4.87
2019-03-29T06:34:46.442Z,4.91
2019-03-29T06:35:57.667Z,4.96
2019-03-29T06:37:08.407Z,5.00
2019-03-29T06:38:19.144Z,5.05
2019-03-29T06:39:30.365Z,5.10
2019-03-29T06:40:41.097Z,5.15
2019-03-29T06:41:52.311Z,5.20
2019-03-29T06:43:03.657Z,5.26
2019-03-29T06:44:15.806Z,5.34
2019-03-29T06:45:27.033Z,5.41
2019-03-29T06:46:38.251Z,5.52
2019-03-29T06:47:48.983Z,5.61
2019-03-29T06:49:00.713Z,5.71
2019-03-29T06:50:13.967Z,5.81
2019-03-29T06:51:22.828Z,5.91
2019-03-29T06:52:33.415Z,6.00
2019-03-29T06:53:44.638Z,6.09
2019-03-29T06:54:55.869Z,6.17
2019-03-29T06:56:06.605Z,6.27
2019-03-29T06:57:17.345Z,6.34
2019-03-29T06:58:28.081Z,6.42
2019-03-29T06:59:39.322Z,6.50
2019-03-29T07:00:50.554Z,6.56
2019-03-29T07:02:01.373Z,6.63
2019-03-29T07:03:12.042Z,6.69
2019-03-29T07:04:22.775Z,6.77
2019-03-29T07:05:34.013Z,6.83
2019-03-29T07:06:45.254Z,6.90
2019-03-29T07:07:56.000Z,6.98
2019-03-29T07:09:07.231Z,7.05
2019-03-29T07:10:18.006Z,7.12
2019-03-29T07:11:29.242Z,7.18
2019-03-29T07:12:40.986Z,7.23
2019-03-29T07:13:57.668Z,7.28
2019-03-29T07:15:02.974Z,7.33
2019-03-29T07:16:14.182Z,7.39
2019-03-29T07:17:24.939Z,7.46
2019-03-29T07:18:36.176Z,7.52
2019-03-29T07:19:46.928Z,7.60
2019-03-29T07:20:57.673Z,7.66
2019-03-29T07:22:08.426Z,7.72
2019-03-29T07:23:19.190Z,7.78
2019-03-29T07:24:29.948Z,7.84
2019-03-29T07:25:40.700Z,7.89
2019-03-29T07:26:52.942Z,7.94
2019-03-29T07:28:04.209Z,8.00
2019-03-29T07:29:15.455Z,8.04
2019-03-29T07:30:27.221Z,8.08
2019-03-29T07:31:37.979Z,8.13
2019-03-29T07:32:48.743Z,8.17
2019-03-29T07:33:59.504Z,8.22
2019-03-29T07:35:10.264Z,8.26
2019-03-29T07:36:21.055Z,8.31
2019-03-29T07:37:31.837Z,8.37
2019-03-29T07:38:43.602Z,8.43
2019-03-29T07:39:54.360Z,8.49
2019-03-29T07:41:05.119Z,8.53
2019-03-29T07:42:15.887Z,8.58
2019-03-29T07:43:26.671Z,8.64
2019-03-29T07:44:37.425Z,8.69
2019-03-29T07:45:48.754Z,8.74
2019-03-29T07:46:59.538Z,8.78
2019-03-29T07:48:10.307Z,8.82
2019-03-29T07:49:21.077Z,8.85
2019-03-29T07:50:32.356Z,8.88
2019-03-29T07:51:43.126Z,8.90
2019-03-29T07:52:53.922Z,8.95
2019-03-29T07:54:05.241Z,8.98
2019-03-29T07:55:16.001Z,9.03
2019-03-29T07:56:26.780Z,9.08
2019-03-29T07:57:38.072Z,9.13
2019-03-29T07:58:48.842Z,9.19
2019-03-29T07:59:59.702Z,9.25
2019-03-29T08:01:10.587Z,9.34
2019-03-29T08:02:21.370Z,9.42
2019-03-29T08:03:32.149Z,9.49
2019-03-29T08:04:46.378Z,9.56
2019-03-29T08:05:54.207Z,9.64
2019-03-29T08:07:06.139Z,9.69
2019-03-29T08:08:23.792Z,9.77
2019-03-29T08:09:27.414Z,9.83
2019-03-29T08:10:37.361Z,9.89
2019-03-29T08:11:48.140Z,9.95
2019-03-29T08:12:58.934Z,10.01
2019-03-29T08:14:09.740Z,10.08
2019-03-29T08:15:20.522Z,10.16
2019-03-29T08:16:31.312Z,10.22
2019-03-29T08:17:42.112Z,10.27
2019-03-29T08:18:52.915Z,10.34
2019-03-29T08:20:36.557Z,10.39
2019-03-29T08:21:15.996Z,10.44
2019-03-29T08:22:28.288Z,10.52
2019-03-29T08:23:39.090Z,10.59
2019-03-29T08:24:49.888Z,10.67
2019-03-29T08:26:00.688Z,10.75
2019-03-29T08:27:11.491Z,10.84
2019-03-29T08:28:22.298Z,10.92
2019-03-29T08:29:33.602Z,10.99
2019-03-29T08:30:44.406Z,11.04
2019-03-29T08:31:55.853Z,11.10
2019-03-29T08:33:06.531Z,11.18
2019-03-29T08:34:17.846Z,11.23
2019-03-29T08:35:28.686Z,11.30
2019-03-29T08:36:39.467Z,11.36
2019-03-29T08:37:50.277Z,11.43
2019-03-29T08:39:01.578Z,11.51
2019-03-29T08:40:12.418Z,11.61
2019-03-29T08:41:23.276Z,11.77
2019-03-29T08:42:34.589Z,12.02
2019-03-29T08:43:45.906Z,12.39
2019-03-29T08:44:56.721Z,12.95
2019-03-29T08:46:08.029Z,13.76
2019-03-29T08:47:19.369Z,14.76
2019-03-29T08:48:30.686Z,15.80
2019-03-29T08:49:42.018Z,16.85
2019-03-29T08:50:52.847Z,17.78
2019-03-29T08:52:04.583Z,18.57
2019-03-29T08:53:15.425Z,19.22
2019-03-29T08:54:26.329Z,19.75
2019-03-29T08:55:45.741Z,20.20
2019-03-29T08:56:48.932Z,20.51
2019-03-29T08:57:59.766Z,20.82
2019-03-29T08:59:11.108Z,20.99
2019-03-29T09:00:21.961Z,21.15
2019-03-29T09:01:33.301Z,21.23
2019-03-29T09:02:44.339Z,21.34
2019-03-29T09:04:04.628Z,21.42
2019-03-29T09:05:06.594Z,21.47
2019-03-29T09:06:17.452Z,21.39
2019-03-29T09:07:28.319Z,21.17
2019-03-29T09:08:39.181Z,20.83
2019-03-29T09:09:50.054Z,20.37
2019-03-29T09:11:00.917Z,19.89
2019-03-29T09:12:14.729Z,19.54
2019-03-29T09:13:24.143Z,19.41
2019-03-29T09:14:35.026Z,19.79
2019-03-29T09:15:45.903Z,21.24
2019-03-29T09:16:57.265Z,23.51
2019-03-29T09:18:08.637Z,25.64
2019-03-29T09:19:19.517Z,27.30
2019-03-29T09:20:30.428Z,28.56
2019-03-29T09:21:41.812Z,29.44
2019-03-29T09:22:53.205Z,30.13
2019-03-29T09:24:04.606Z,30.74
2019-03-29T09:25:15.557Z,31.26
2019-03-29T09:26:26.981Z,31.68
2019-03-29T09:27:38.428Z,32.17
2019-03-29T09:28:49.424Z,32.64
2019-03-29T09:30:00.524Z,33.03
2019-03-29T09:31:11.491Z,33.48
2019-03-29T09:32:23.067Z,33.92
2019-03-29T09:33:34.682Z,34.39
2019-03-29T09:34:46.314Z,34.91
2019-03-29T09:35:57.978Z,35.42
2019-03-29T09:37:09.195Z,35.88
2019-03-29T09:38:20.911Z,36.41
2019-03-29T09:39:32.666Z,36.93
2019-03-29T09:40:54.757Z,36.92
2019-03-29T09:41:55.776Z,36.84
2019-03-29T09:43:08.436Z,34.11
2019-03-29T09:44:19.366Z,31.14
2019-03-29T09:45:31.174Z,31.11
2019-03-29T09:46:42.977Z,30.66
2019-03-29T09:47:56.052Z,31.26
2019-03-29T09:49:08.373Z,30.13
2019-03-29T09:50:18.549Z,28.06
2019-03-29T09:51:30.340Z,26.10
2019-03-29T09:52:42.101Z,24.42
2019-03-29T09:53:53.842Z,23.10
2019-03-29T09:55:05.569Z,22.27
2019-03-29T09:56:16.793Z,21.64
2019-03-29T09:57:37.254Z,21.14
2019-03-29T09:58:40.274Z,20.77
2019-03-29T09:59:51.445Z,20.55
2019-03-29T10:01:02.619Z,20.42
2019-03-29T10:02:15.265Z,20.36
2019-03-29T10:03:26.922Z,20.28
2019-03-29T10:04:38.581Z,20.25
2019-03-29T10:05:50.233Z,20.34
2019-03-29T10:07:01.871Z,20.55
2019-03-29T10:08:14.583Z,20.83
2019-03-29T10:09:26.218Z,21.15
2019-03-29T10:10:37.843Z,21.40
2019-03-29T10:11:49.470Z,21.79
2019-03-29T10:13:01.104Z,22.33
2019-03-29T10:14:12.248Z,22.78
2019-03-29T10:15:23.893Z,23.03
2019-03-29T10:16:35.553Z,23.04
2019-03-29T10:17:46.699Z,22.98
2019-03-29T10:18:58.345Z,22.88
2019-03-29T10:20:09.494Z,22.77
2019-03-29T10:21:21.152Z,22.66
2019-03-29T10:22:32.294Z,22.56
2019-03-29T10:23:43.941Z,22.50
2019-03-29T10:24:55.592Z,22.42
2019-03-29T10:26:06.746Z,22.29
2019-03-29T10:27:19.173Z,22.13
2019-03-29T10:28:29.573Z,21.99
2019-03-29T10:29:41.218Z,21.91
2019-03-29T10:30:52.850Z,22.25
2019-03-29T10:32:08.987Z,22.78
2019-03-29T10:33:16.242Z,23.28
2019-03-29T10:34:27.878Z,23.63
2019-03-29T10:35:50.693Z,23.73
2019-03-29T10:36:51.178Z,23.75
2019-03-29T10:38:02.343Z,23.79
2019-03-29T10:39:13.995Z,24.26
2019-03-29T10:40:25.664Z,24.96
2019-03-29T10:41:38.102Z,25.16
2019-03-29T10:42:57.574Z,25.05
2019-03-29T10:44:00.705Z,24.82
2019-03-29T10:45:12.392Z,24.55
2019-03-29T10:46:24.065Z,24.27
2019-03-29T10:47:43.738Z,23.99
2019-03-29T10:48:46.930Z,23.69
2019-03-29T10:49:59.602Z,23.42
2019-03-29T10:51:11.288Z,23.24
2019-03-29T10:52:22.968Z,23.13
2019-03-29T10:53:34.656Z,23.04
2019-03-29T10:54:49.679Z,22.96
2019-03-29T10:55:58.009Z,22.81
2019-03-29T10:57:09.689Z,22.64
2019-03-29T10:58:21.369Z,22.46
2019-03-29T10:59:33.049Z,22.25
2019-03-29T11:00:44.222Z,22.00
2019-03-29T11:01:56.173Z,21.88
2019-03-29T11:03:07.832Z,21.91
2019-03-29T11:04:18.998Z,22.27
2019-03-29T11:05:30.590Z,24.36
2019-03-29T11:06:41.770Z,25.36
2019-03-29T11:07:53.469Z,25.43
2019-03-29T11:09:05.151Z,25.27
2019-03-29T11:10:16.859Z,25.11
2019-03-29T11:11:28.583Z,24.99
2019-03-29T11:12:39.796Z,24.89
2019-03-29T11:13:51.501Z,25.10
2019-03-29T11:15:06.354Z,26.28
2019-03-29T11:16:13.935Z,28.21
2019-03-29T11:17:25.701Z,31.85
2019-03-29T11:18:37.498Z,34.51
2019-03-29T11:19:48.806Z,37.98
2019-03-29T11:21:00.158Z,40.15
2019-03-29T11:22:12.037Z,39.04
2019-03-29T11:23:23.430Z,39.11
2019-03-29T11:24:34.849Z,38.61
2019-03-29T11:25:48.678Z,36.48
2019-03-29T11:26:58.166Z,34.66
2019-03-29T11:28:10.083Z,32.88
2019-03-29T11:29:22.000Z,31.21
2019-03-29T11:30:42.125Z,29.89
2019-03-29T11:31:45.770Z,28.84
2019-03-29T11:32:57.653Z,28.05
2019-03-29T11:34:09.044Z,27.67
2019-03-29T11:35:20.916Z,27.34
2019-03-29T11:36:32.281Z,27.16
2019-03-29T11:37:44.650Z,27.07
2019-03-29T11:38:56.013Z,27.25
2019-03-29T11:40:07.855Z,27.29
2019-03-29T11:41:19.706Z,27.32
2019-03-29T11:42:31.068Z,27.43
2019-03-29T11:43:43.907Z,27.34
2019-03-29T11:44:55.263Z,27.07
2019-03-29T11:46:07.121Z,26.97
2019-03-29T11:47:18.599Z,28.65
2019-03-29T11:48:30.602Z,31.00
2019-03-29T11:49:42.584Z,33.72
2019-03-29T11:50:54.596Z,34.99
2019-03-29T11:52:06.590Z,34.42
2019-03-29T11:53:18.549Z,33.27
2019-03-29T11:54:30.488Z,31.60
2019-03-29T11:55:42.415Z,30.20
2019-03-29T11:56:54.336Z,29.38
2019-03-29T11:58:06.253Z,28.69
2019-03-29T11:59:18.161Z,28.05
2019-03-29T12:00:30.059Z,27.15
2019-03-29T12:01:41.948Z,26.35
2019-03-29T12:02:53.837Z,26.66
2019-03-29T12:04:05.224Z,26.85
2019-03-29T12:05:17.117Z,26.47
2019-03-29T12:06:28.981Z,26.25
2019-03-29T12:07:40.875Z,25.96
2019-03-29T12:08:52.745Z,25.60
2019-03-29T12:10:04.634Z,28.01
2019-03-29T12:11:17.034Z,30.86
2019-03-29T12:12:28.961Z,33.12
2019-03-29T12:13:41.647Z,34.70
2019-03-29T12:14:52.890Z,35.78
2019-03-29T12:16:04.879Z,36.29
2019-03-29T12:17:16.894Z,36.15
2019-03-29T12:18:28.431Z,35.44
2019-03-29T12:19:40.596Z,34.52
2019-03-29T12:20:54.379Z,33.70
2019-03-29T12:22:04.723Z,32.79
2019-03-29T12:23:16.806Z,32.27
2019-03-29T12:24:28.898Z,31.82
2019-03-29T12:25:40.987Z,31.33
2019-03-29T12:26:55.010Z,31.43
2019-03-29T12:28:05.200Z,31.61
2019-03-29T12:29:17.296Z,31.26
2019-03-29T12:30:32.226Z,30.55
2019-03-29T12:31:41.013Z,29.39
2019-03-29T12:32:53.070Z,28.50
2019-03-29T12:34:05.138Z,28.59
2019-03-29T12:35:17.205Z,29.44
2019-03-29T12:36:29.288Z,30.43
2019-03-29T12:37:41.381Z,31.40
2019-03-29T12:38:54.606Z,32.26
2019-03-29T12:40:06.742Z,32.93
2019-03-29T12:41:18.861Z,33.26
2019-03-29T12:42:30.998Z,33.74
2019-03-29T12:43:54.895Z,34.22
2019-03-29T12:44:55.315Z,34.63
2019-03-29T12:46:07.457Z,35.03
2019-03-29T12:47:19.630Z,35.43
2019-03-29T12:48:31.840Z,35.77
2019-03-29T12:49:44.014Z,36.03
2019-03-29T12:50:55.727Z,36.21
2019-03-29T12:52:07.943Z,36.43
2019-03-29T12:53:19.673Z,36.53
2019-03-29T12:54:31.409Z,36.65
2019-03-29T12:55:43.154Z,36.69
2019-03-29T12:56:54.888Z,36.76
2019-03-29T12:58:07.133Z,36.87
2019-03-29T12:59:19.377Z,37.04
2019-03-29T13:00:31.137Z,37.16
2019-03-29T13:01:42.889Z,37.34
2019-03-29T13:02:54.647Z,37.42
2019-03-29T13:04:09.627Z,37.52
2019-03-29T13:05:18.678Z,37.59
2019-03-29T13:06:30.449Z,37.51
2019-03-29T13:07:42.237Z,37.51
2019-03-29T13:08:54.586Z,37.48
2019-03-29T13:10:06.855Z,37.43
2019-03-29T13:11:19.124Z,37.31
2019-03-29T13:12:30.897Z,37.22
2019-03-29T13:13:42.672Z,37.13
2019-03-29T13:14:54.947Z,37.13
2019-03-29T13:16:06.720Z,37.08
2019-03-29T13:17:18.496Z,36.94
2019-03-29T13:18:30.760Z,36.81
2019-03-29T13:19:43.039Z,36.65
2019-03-29T13:20:55.313Z,36.45
2019-03-29T13:22:07.584Z,36.20
2019-03-29T13:23:19.943Z,36.02
2019-03-29T13:24:32.222Z,35.82
2019-03-29T13:25:44.590Z,35.67
2019-03-29T13:26:56.378Z,35.63
2019-03-29T13:28:08.157Z,35.62
2019-03-29T13:29:19.948Z,35.47
2019-03-29T13:30:31.738Z,35.26
2019-03-29T13:31:43.515Z,35.12
2019-03-29T13:32:55.302Z,34.94
2019-03-29T13:34:07.564Z,34.83
2019-03-29T13:35:19.353Z,34.72
2019-03-29T13:36:31.617Z,34.62
2019-03-29T13:37:43.396Z,34.53
2019-03-29T13:38:55.661Z,34.45
2019-03-29T13:40:07.445Z,34.28
2019-03-29T13:41:19.225Z,34.16
2019-03-29T13:42:31.007Z,34.09
2019-03-29T13:43:42.769Z,34.01
2019-03-29T13:44:55.046Z,33.84
2019-03-29T13:46:06.806Z,33.73
2019-03-29T13:47:18.574Z,33.70
2019-03-29T13:48:31.840Z,33.70
2019-03-29T13:49:43.614Z,33.66
2019-03-29T13:50:55.367Z,33.55
2019-03-29T13:52:07.646Z,33.41
2019-03-29T13:53:19.903Z,33.31
2019-03-29T13:54:31.646Z,33.24
2019-03-29T13:55:43.898Z,33.22
2019-03-29T13:56:56.134Z,33.15
2019-03-29T13:58:08.378Z,33.18
2019-03-29T13:59:20.633Z,33.16
2019-03-29T14:00:32.882Z,33.10
2019-03-29T14:01:45.114Z,33.03
2019-03-29T14:02:57.857Z,32.89
2019-03-29T14:04:09.595Z,32.70
2019-03-29T14:05:21.338Z,32.59
2019-03-29T14:06:33.072Z,32.26
2019-03-29T14:07:45.305Z,31.76
2019-03-29T14:08:57.524Z,31.16
2019-03-29T14:10:09.737Z,30.51
2019-03-29T14:11:21.977Z,29.83
2019-03-29T14:12:33.695Z,29.46
2019-03-29T14:13:45.405Z,29.26
2019-03-29T14:14:57.601Z,29.03
2019-03-29T14:16:09.319Z,28.76
2019-03-29T14:17:21.018Z,28.67
2019-03-29T14:18:32.709Z,28.59
2019-03-29T14:19:44.403Z,28.39
2019-03-29T14:20:56.636Z,28.29
2019-03-29T14:22:08.813Z,28.35
2019-03-29T14:23:20.984Z,28.41
2019-03-29T14:24:33.464Z,28.25
2019-03-29T14:25:45.644Z,28.01
2019-03-29T14:26:57.844Z,28.12
2019-03-29T14:28:09.996Z,28.37
2019-03-29T14:29:22.153Z,28.37
2019-03-29T14:30:34.289Z,28.02
2019-03-29T14:31:46.425Z,27.62
2019-03-29T14:32:58.586Z,27.33
2019-03-29T14:34:10.214Z,27.15
2019-03-29T14:35:21.850Z,27.01
2019-03-29T14:36:33.990Z,26.87
2019-03-29T14:37:46.098Z,26.90
2019-03-29T14:38:58.213Z,27.16
2019-03-29T14:40:10.323Z,27.02
2019-03-29T14:41:22.437Z,26.86
2019-03-29T14:42:34.110Z,27.00
2019-03-29T14:43:46.126Z,27.30
2019-03-29T14:44:58.223Z,27.25
2019-03-29T14:46:10.328Z,27.06
2019-03-29T14:47:21.909Z,26.77
2019-03-29T14:48:33.977Z,26.55
2019-03-29T14:49:46.040Z,26.38
2019-03-29T14:50:57.596Z,26.05
2019-03-29T14:52:09.638Z,25.99
2019-03-29T14:53:21.161Z,25.95
2019-03-29T14:54:32.685Z,25.96
2019-03-29T14:55:44.687Z,25.86
2019-03-29T14:56:56.677Z,25.75
2019-03-29T14:58:08.171Z,25.59
2019-03-29T14:59:19.659Z,25.51
2019-03-29T15:00:31.636Z,25.44
2019-03-29T15:01:43.108Z,25.19
2019-03-29T15:02:54.568Z,24.90
2019-03-29T15:04:06.621Z,24.70
2019-03-29T15:05:18.066Z,24.32
2019-03-29T15:06:29.516Z,24.05
2019-03-29T15:07:41.623Z,23.73
2019-03-29T15:08:53.617Z,23.43
2019-03-29T15:10:05.548Z,23.17
2019-03-29T15:11:22.448Z,23.03
2019-03-29T15:12:28.890Z,22.95
2019-03-29T15:13:40.305Z,22.92
2019-03-29T15:15:05.239Z,22.88
2019-03-29T15:16:03.109Z,22.74
2019-03-29T15:17:15.025Z,22.60
2019-03-29T15:18:26.929Z,22.39
2019-03-29T15:19:38.301Z,22.29
2019-03-29T15:20:53.932Z,22.20
2019-03-29T15:22:01.535Z,22.03
2019-03-29T15:23:13.406Z,21.78
2019-03-29T15:24:25.298Z,21.66
2019-03-29T15:25:40.341Z,21.59
2019-03-29T15:26:48.444Z,21.41
2019-03-29T15:28:00.292Z,21.13
2019-03-29T15:29:12.119Z,20.84
2019-03-29T15:30:23.442Z,20.62
2019-03-29T15:31:34.754Z,20.56
2019-03-29T15:32:46.547Z,20.58
2019-03-29T15:33:57.833Z,20.59
2019-03-29T15:35:09.633Z,20.56